Und Birlik — TCCA6 — position and weather

sailwx.info

Track history (hours):
 
Tides and Currents Weather Stations Pressure Air Temp Water Temp Dewpoint Dewpoint Depression Visibility Wind Speed Wind Dir Waves Ship Positions

Und Birlik

Last reported at 2017-Sep-18 22:00 UTC. Time now 2017-Sep-23 14:55 UTC.
Position N 40°02' E 026°14'.

Length 193 m; draft 6 m.

Type: Ship (hazmat cat A). MMSI: 271000662.

Date/timePositionNaut miles runAvg speedWind from/ knotsBaromVisibWave heightAir tempDewpointWater temp
2017-Sep-18 22:00N 40°02' E 026°14'1117.6
2017-Sep-18 21:24N 39°58' E 026°01'819.2
2017-Sep-18 21:00N 39°52' E 025°55'1120.3
2017-Sep-18 20:29N 39°43' E 025°49'15720.7
2017-Sep-18 12:54N 37°24' E 024°15'820.8
2017-Sep-18 12:30N 37°18' E 024°09'1020.6
2017-Sep-18 12:00N 37°09' E 024°00'1020.5
2017-Sep-18 11:30N 37°01' E 023°53'1020.6
2017-Sep-18 11:00N 36°53' E 023°45'1020.7
2017-Sep-18 10:30N 36°45' E 023°37'32117.8
2017-Sep-17 16:27N 40°18' E 018°31'1019.9
2017-Sep-17 15:58N 40°26' E 018°24'919.9
2017-Sep-17 15:30N 40°33' E 018°16'29420.5
2017-Sep-17 01:10N 44°15' E 013°55'820.5
2017-Sep-17 00:45N 44°22' E 013°49'520.3
2017-Sep-17 00:30N 44°26' E 013°45'1020.3
2017-Sep-17 00:00N 44°35' E 013°37'1020.2
2017-Sep-16 23:30N 44°43' E 013°29'1020.4
2017-Sep-16 23:00N 44°52' E 013°21'1020.1
2017-Sep-16 22:30N 45°00' E 013°14'1019.9
2017-Sep-16 22:00N 45°09' E 013°06'1020.1
2017-Sep-16 21:30N 45°19' E 013°03'918.6
2017-Sep-16 21:00N 45°27' E 013°10'1019.9
2017-Sep-16 20:30N 45°34' E 013°20'1020.2
2017-Sep-16 20:00N 45°37' E 013°33'815.9
2017-Sep-16 19:30N 45°39' E 013°45'0 0.4
2017-Sep-16 18:57N 45°39' E 013°45'0 0.0
2017-Sep-16 18:30N 45°39' E 013°45'0 0.0
2017-Sep-16 18:00N 45°39' E 013°45'0 0.0
2017-Sep-16 17:30N 45°39' E 013°45'0 0.0
2017-Sep-16 17:00N 45°39' E 013°45'0 0.0
2017-Sep-16 16:27N 45°39' E 013°45'0 0.0
2017-Sep-16 16:00N 45°39' E 013°45'0 0.0
2017-Sep-16 15:27N 45°39' E 013°45'0 0.0
2017-Sep-16 15:00N 45°39' E 013°45'0 0.0
2017-Sep-16 14:27N 45°39' E 013°45'0 0.0
2017-Sep-16 14:00N 45°39' E 013°45'0 0.0
2017-Sep-16 13:30N 45°39' E 013°45'0 0.0
2017-Sep-16 13:00N 45°39' E 013°45'0 0.0
2017-Sep-16 12:30N 45°39' E 013°45'0 0.0
2017-Sep-16 11:57N 45°39' E 013°45'0 0.0
2017-Sep-16 11:27N 45°39' E 013°45'0 0.0
2017-Sep-16 10:57N 45°39' E 013°45'0 0.0
2017-Sep-16 10:30N 45°39' E 013°45'0 0.0
2017-Sep-16 10:00N 45°39' E 013°45'0 0.0
2017-Sep-16 09:24N 45°39' E 013°45'0 1.0
2017-Sep-16 09:01N 45°39' E 013°45'713.4
2017-Sep-16 08:30N 45°37' E 013°36'1020.4
2017-Sep-16 08:00N 45°31' E 013°24'1020.4
2017-Sep-16 07:30N 45°23' E 013°14'1020.3
2017-Sep-16 07:00N 45°13' E 013°16'1020.9
2017-Sep-16 06:30N 45°03' E 013°21'1020.9
2017-Sep-16 06:00N 44°54' E 013°27'1021.1
2017-Sep-16 05:30N 44°45' E 013°35'917.6
2017-Sep-16 05:00N 44°37' E 013°42'917.6
2017-Sep-16 04:31N 44°30' E 013°48'510.0
2017-Sep-16 04:01N 44°26' E 013°52'612.3
2017-Sep-16 03:30N 44°21' E 013°57'612.3
2017-Sep-16 03:00N 44°16' E 014°02'612.6
2017-Sep-16 02:30N 44°10' E 014°07'712.7
2017-Sep-16 01:59N 44°05' E 014°12'61318.2
2017-Sep-14 16:12N 36°38' E 023°22'520.6
2017-Sep-14 15:59N 36°42' E 023°25'1020.9
2017-Sep-14 15:30N 36°50' E 023°32'1020.6
2017-Sep-14 15:00N 36°59' E 023°39'1020.3
2017-Sep-14 14:30N 37°07' E 023°46'1620.3
2017-Sep-14 13:44N 37°20' E 023°57'720.3
2017-Sep-14 13:25N 37°26' E 024°01'1120.8
2017-Sep-14 12:54N 37°35' E 024°08'1120.3
2017-Sep-14 12:23N 37°44' E 024°16'299 8.4
2017-Sep-13 00:50N 40°51' E 029°16'0 0.0
2017-Sep-13 00:26N 40°51' E 029°16'0 0.0
2017-Sep-12 23:56N 40°51' E 029°16'0 0.0
2017-Sep-12 23:20N 40°51' E 029°16'0 0.0
2017-Sep-12 22:56N 40°51' E 029°16'0 0.0
2017-Sep-12 22:26N 40°51' E 029°16'0 0.0
2017-Sep-12 21:56N 40°51' E 029°16'0 0.0
2017-Sep-12 21:26N 40°51' E 029°16'0 0.0
2017-Sep-12 20:56N 40°51' E 029°16'0 0.0
2017-Sep-12 20:26N 40°51' E 029°16'0 0.0
2017-Sep-12 19:56N 40°51' E 029°16'0 0.0
2017-Sep-12 19:26N 40°51' E 029°16'0 0.0
2017-Sep-12 18:56N 40°51' E 029°16'0 0.0
2017-Sep-12 18:26N 40°51' E 029°16'0 0.0
2017-Sep-12 17:56N 40°51' E 029°16'0 0.0
2017-Sep-12 17:14N 40°51' E 029°16'0 0.0
2017-Sep-12 16:56N 40°51' E 029°16'0 0.0
2017-Sep-12 16:26N 40°51' E 029°16'0 0.0
2017-Sep-12 15:56N 40°51' E 029°16'0 0.0
2017-Sep-12 15:26N 40°51' E 029°16'0 0.0
2017-Sep-12 14:56N 40°51' E 029°16'0 0.0
2017-Sep-12 14:26N 40°51' E 029°16'0 0.0
2017-Sep-12 13:56N 40°51' E 029°16'0 0.0
2017-Sep-12 13:26N 40°51' E 029°16'0 0.0
2017-Sep-12 13:00N 40°51' E 029°16'2 3.4
2017-Sep-12 12:31N 40°51' E 029°14'1019.7
2017-Sep-12 11:59N 40°49' E 029°01'17 3.2
2017-Sep-12 06:42N 40°56' E 028°41'614.2
2017-Sep-12 06:17N 40°53' E 028°34'19917.8
2017-Sep-11 19:06N 38°49' E 025°12'421.1
2017-Sep-11 18:54N 38°45' E 025°09'920.9
2017-Sep-11 18:28N 38°37' E 025°04'8920.9
2017-Sep-11 14:13N 37°19' E 024°10'720.5
2017-Sep-11 13:54N 37°14' E 024°05'1020.4
2017-Sep-11 13:26N 37°06' E 023°57'920.3
2017-Sep-11 13:01N 36°60' E 023°51'1020.7
2017-Sep-11 12:30N 36°51' E 023°43'1020.6
2017-Sep-11 12:00N 36°43' E 023°35'2620.7
2017-Sep-11 10:45N 36°25' E 023°12'10618.5
2017-Sep-11 04:59N 37°11' E 021°13'1019.6
2017-Sep-11 04:29N 37°18' E 021°04'1620.1
2017-Sep-11 03:42N 37°30' E 020°52'520.1
2017-Sep-11 03:26N 37°35' E 020°48'920.1
2017-Sep-11 03:00N 37°41' E 020°41'1220.1
2017-Sep-11 02:24N 37°51' E 020°31'919.9
2017-Sep-11 01:57N 37°58' E 020°24'1119.9
2017-Sep-11 01:25N 38°07' E 020°17'1219.8
2017-Sep-11 00:48N 38°17' E 020°09'819.6
2017-Sep-11 00:24N 38°24' E 020°04'819.7
2017-Sep-11 00:00N 38°31' E 019°59'4019.9
2017-Sep-10 21:59N 39°05' E 019°33'9219.8
2017-Sep-10 17:21N 40°22' E 018°28'30719.7
2017-Sep-10 01:44N 44°15' E 013°55'920.0
2017-Sep-10 01:16N 44°23' E 013°48'520.0
2017-Sep-10 01:00N 44°27' E 013°44'1019.7
2017-Sep-10 00:31N 44°35' E 013°37'1019.8
2017-Sep-10 00:00N 44°44' E 013°29'1019.3
2017-Sep-09 23:31N 44°52' E 013°22'1019.2
2017-Sep-09 23:01N 44°60' E 013°15'1019.0
2017-Sep-09 22:30N 45°08' E 013°08'918.7
2017-Sep-09 22:01N 45°17' E 013°04'917.1
2017-Sep-09 21:31N 45°25' E 013°07'918.4
2017-Sep-09 21:00N 45°32' E 013°16'919.0
2017-Sep-09 20:30N 45°36' E 013°28'918.8
2017-Sep-09 20:01N 45°39' E 013°40'3 5.3
2017-Sep-09 19:23N 45°39' E 013°45'0 0.0
2017-Sep-09 18:59N 45°39' E 013°45'0 0.0
2017-Sep-09 18:26N 45°39' E 013°45'0 0.0
2017-Sep-09 17:44N 45°39' E 013°45'0 0.0
2017-Sep-09 17:20N 45°39' E 013°45'0 0.0
2017-Sep-09 16:59N 45°39' E 013°45'0 0.0
2017-Sep-09 16:29N 45°39' E 013°45'0 0.0
2017-Sep-09 15:56N 45°39' E 013°45'0 0.0
2017-Sep-09 15:29N 45°39' E 013°45'0 0.0
2017-Sep-09 14:59N 45°39' E 013°45'0 0.0
2017-Sep-09 14:26N 45°39' E 013°45'0 0.0
2017-Sep-09 13:59N 45°39' E 013°45'0 0.0
2017-Sep-09 13:29N 45°39' E 013°45'0 0.0
2017-Sep-09 12:56N 45°39' E 013°45'0 0.0
2017-Sep-09 12:29N 45°39' E 013°45'0 0.0
2017-Sep-09 11:50N 45°39' E 013°45'0 0.0
2017-Sep-09 11:14N 45°39' E 013°45'0 0.0
2017-Sep-09 10:56N 45°39' E 013°45'0 0.0
2017-Sep-09 10:26N 45°39' E 013°45'0 0.0
2017-Sep-09 10:00N 45°39' E 013°45'0 0.0
2017-Sep-09 09:30N 45°39' E 013°45'0 0.0
2017-Sep-09 09:00N 45°39' E 013°45'4 7.4
2017-Sep-09 08:30N 45°39' E 013°40'1019.8
2017-Sep-09 08:00N 45°33' E 013°28'1020.9
2017-Sep-09 07:30N 45°26' E 013°17'1019.6
2017-Sep-09 07:00N 45°16' E 013°15'1121.5
2017-Sep-09 06:30N 45°06' E 013°19'1121.5
2017-Sep-09 06:00N 44°56' E 013°25'1121.3
2017-Sep-09 05:30N 44°47' E 013°33'1121.2
2017-Sep-09 05:00N 44°38' E 013°41'815.1
2017-Sep-09 04:30N 44°32' E 013°47'612.7
2017-Sep-09 04:00N 44°27' E 013°52'612.7
2017-Sep-09 03:30N 44°21' E 013°57'612.5
2017-Sep-09 03:00N 44°16' E 014°02'  
Track history (hours):
 
Tides and Currents Weather Stations Pressure Air Temp Water Temp Dewpoint Dewpoint Depression Visibility Wind Speed Wind Dir Waves Ship Positions

Und Birlik

Last reported at 2017-Sep-18 22:00 UTC. Time now 2017-Sep-23 14:55 UTC.
Position N 40°02' E 026°14'.

Length 193 m; draft 6 m.

Type: Ship (hazmat cat A). MMSI: 271000662.

Date/timePositionNaut miles runAvg speedWind from/ knotsBaromVisibWave heightAir tempDewpointWater temp
2017-Sep-18 22:00N 40°02' E 026°14'1117.6
2017-Sep-18 21:24N 39°58' E 026°01'819.2
2017-Sep-18 21:00N 39°52' E 025°55'1120.3
2017-Sep-18 20:29N 39°43' E 025°49'15720.7
2017-Sep-18 12:54N 37°24' E 024°15'820.8
2017-Sep-18 12:30N 37°18' E 024°09'1020.6
2017-Sep-18 12:00N 37°09' E 024°00'1020.5
2017-Sep-18 11:30N 37°01' E 023°53'1020.6
2017-Sep-18 11:00N 36°53' E 023°45'1020.7
2017-Sep-18 10:30N 36°45' E 023°37'32117.8
2017-Sep-17 16:27N 40°18' E 018°31'1019.9
2017-Sep-17 15:58N 40°26' E 018°24'919.9
2017-Sep-17 15:30N 40°33' E 018°16'29420.5
2017-Sep-17 01:10N 44°15' E 013°55'820.5
2017-Sep-17 00:45N 44°22' E 013°49'520.3
2017-Sep-17 00:30N 44°26' E 013°45'1020.3
2017-Sep-17 00:00N 44°35' E 013°37'1020.2
2017-Sep-16 23:30N 44°43' E 013°29'1020.4
2017-Sep-16 23:00N 44°52' E 013°21'1020.1
2017-Sep-16 22:30N 45°00' E 013°14'1019.9
2017-Sep-16 22:00N 45°09' E 013°06'1020.1
2017-Sep-16 21:30N 45°19' E 013°03'918.6
2017-Sep-16 21:00N 45°27' E 013°10'1019.9
2017-Sep-16 20:30N 45°34' E 013°20'1020.2
2017-Sep-16 20:00N 45°37' E 013°33'815.9
2017-Sep-16 19:30N 45°39' E 013°45'0 0.4
2017-Sep-16 18:57N 45°39' E 013°45'0 0.0
2017-Sep-16 18:30N 45°39' E 013°45'0 0.0
2017-Sep-16 18:00N 45°39' E 013°45'0 0.0
2017-Sep-16 17:30N 45°39' E 013°45'0 0.0
2017-Sep-16 17:00N 45°39' E 013°45'0 0.0
2017-Sep-16 16:27N 45°39' E 013°45'0 0.0
2017-Sep-16 16:00N 45°39' E 013°45'0 0.0
2017-Sep-16 15:27N 45°39' E 013°45'0 0.0
2017-Sep-16 15:00N 45°39' E 013°45'0 0.0
2017-Sep-16 14:27N 45°39' E 013°45'0 0.0
2017-Sep-16 14:00N 45°39' E 013°45'0 0.0
2017-Sep-16 13:30N 45°39' E 013°45'0 0.0
2017-Sep-16 13:00N 45°39' E 013°45'0 0.0
2017-Sep-16 12:30N 45°39' E 013°45'0 0.0
2017-Sep-16 11:57N 45°39' E 013°45'0 0.0
2017-Sep-16 11:27N 45°39' E 013°45'0 0.0
2017-Sep-16 10:57N 45°39' E 013°45'0 0.0
2017-Sep-16 10:30N 45°39' E 013°45'0 0.0
2017-Sep-16 10:00N 45°39' E 013°45'0 0.0
2017-Sep-16 09:24N 45°39' E 013°45'0 1.0
2017-Sep-16 09:01N 45°39' E 013°45'713.4
2017-Sep-16 08:30N 45°37' E 013°36'1020.4
2017-Sep-16 08:00N 45°31' E 013°24'1020.4
2017-Sep-16 07:30N 45°23' E 013°14'1020.3
2017-Sep-16 07:00N 45°13' E 013°16'1020.9
2017-Sep-16 06:30N 45°03' E 013°21'1020.9
2017-Sep-16 06:00N 44°54' E 013°27'1021.1
2017-Sep-16 05:30N 44°45' E 013°35'917.6
2017-Sep-16 05:00N 44°37' E 013°42'917.6
2017-Sep-16 04:31N 44°30' E 013°48'510.0
2017-Sep-16 04:01N 44°26' E 013°52'612.3
2017-Sep-16 03:30N 44°21' E 013°57'612.3
2017-Sep-16 03:00N 44°16' E 014°02'612.6
2017-Sep-16 02:30N 44°10' E 014°07'712.7
2017-Sep-16 01:59N 44°05' E 014°12'61318.2
2017-Sep-14 16:12N 36°38' E 023°22'520.6
2017-Sep-14 15:59N 36°42' E 023°25'1020.9
2017-Sep-14 15:30N 36°50' E 023°32'1020.6
2017-Sep-14 15:00N 36°59' E 023°39'1020.3
2017-Sep-14 14:30N 37°07' E 023°46'1620.3
2017-Sep-14 13:44N 37°20' E 023°57'720.3
2017-Sep-14 13:25N 37°26' E 024°01'1120.8
2017-Sep-14 12:54N 37°35' E 024°08'1120.3
2017-Sep-14 12:23N 37°44' E 024°16'299 8.4
2017-Sep-13 00:50N 40°51' E 029°16'0 0.0
2017-Sep-13 00:26N 40°51' E 029°16'0 0.0
2017-Sep-12 23:56N 40°51' E 029°16'0 0.0
2017-Sep-12 23:20N 40°51' E 029°16'0 0.0
2017-Sep-12 22:56N 40°51' E 029°16'0 0.0
2017-Sep-12 22:26N 40°51' E 029°16'0 0.0
2017-Sep-12 21:56N 40°51' E 029°16'0 0.0
2017-Sep-12 21:26N 40°51' E 029°16'0 0.0
2017-Sep-12 20:56N 40°51' E 029°16'0 0.0
2017-Sep-12 20:26N 40°51' E 029°16'0 0.0
2017-Sep-12 19:56N 40°51' E 029°16'0 0.0
2017-Sep-12 19:26N 40°51' E 029°16'0 0.0
2017-Sep-12 18:56N 40°51' E 029°16'0 0.0
2017-Sep-12 18:26N 40°51' E 029°16'0 0.0
2017-Sep-12 17:56N 40°51' E 029°16'0 0.0
2017-Sep-12 17:14N 40°51' E 029°16'0 0.0
2017-Sep-12 16:56N 40°51' E 029°16'0 0.0
2017-Sep-12 16:26N 40°51' E 029°16'0 0.0
2017-Sep-12 15:56N 40°51' E 029°16'0 0.0
2017-Sep-12 15:26N 40°51' E 029°16'0 0.0
2017-Sep-12 14:56N 40°51' E 029°16'0 0.0
2017-Sep-12 14:26N 40°51' E 029°16'0 0.0
2017-Sep-12 13:56N 40°51' E 029°16'0 0.0
2017-Sep-12 13:26N 40°51' E 029°16'0 0.0
2017-Sep-12 13:00N 40°51' E 029°16'2 3.4
2017-Sep-12 12:31N 40°51' E 029°14'1019.7
2017-Sep-12 11:59N 40°49' E 029°01'17 3.2
2017-Sep-12 06:42N 40°56' E 028°41'614.2
2017-Sep-12 06:17N 40°53' E 028°34'19917.8
2017-Sep-11 19:06N 38°49' E 025°12'421.1
2017-Sep-11 18:54N 38°45' E 025°09'920.9
2017-Sep-11 18:28N 38°37' E 025°04'8920.9
2017-Sep-11 14:13N 37°19' E 024°10'720.5
2017-Sep-11 13:54N 37°14' E 024°05'1020.4
2017-Sep-11 13:26N 37°06' E 023°57'920.3
2017-Sep-11 13:01N 36°60' E 023°51'1020.7
2017-Sep-11 12:30N 36°51' E 023°43'1020.6
2017-Sep-11 12:00N 36°43' E 023°35'2620.7
2017-Sep-11 10:45N 36°25' E 023°12'10618.5
2017-Sep-11 04:59N 37°11' E 021°13'1019.6
2017-Sep-11 04:29N 37°18' E 021°04'1620.1
2017-Sep-11 03:42N 37°30' E 020°52'520.1
2017-Sep-11 03:26N 37°35' E 020°48'920.1
2017-Sep-11 03:00N 37°41' E 020°41'1220.1
2017-Sep-11 02:24N 37°51' E 020°31'919.9
2017-Sep-11 01:57N 37°58' E 020°24'1119.9
2017-Sep-11 01:25N 38°07' E 020°17'1219.8
2017-Sep-11 00:48N 38°17' E 020°09'819.6
2017-Sep-11 00:24N 38°24' E 020°04'819.7
2017-Sep-11 00:00N 38°31' E 019°59'4019.9
2017-Sep-10 21:59N 39°05' E 019°33'9219.8
2017-Sep-10 17:21N 40°22' E 018°28'30719.7
2017-Sep-10 01:44N 44°15' E 013°55'920.0
2017-Sep-10 01:16N 44°23' E 013°48'520.0
2017-Sep-10 01:00N 44°27' E 013°44'1019.7
2017-Sep-10 00:31N 44°35' E 013°37'1019.8
2017-Sep-10 00:00N 44°44' E 013°29'1019.3
2017-Sep-09 23:31N 44°52' E 013°22'1019.2
2017-Sep-09 23:01N 44°60' E 013°15'1019.0
2017-Sep-09 22:30N 45°08' E 013°08'918.7
2017-Sep-09 22:01N 45°17' E 013°04'917.1
2017-Sep-09 21:31N 45°25' E 013°07'918.4
2017-Sep-09 21:00N 45°32' E 013°16'919.0
2017-Sep-09 20:30N 45°36' E 013°28'918.8
2017-Sep-09 20:01N 45°39' E 013°40'3 5.3
2017-Sep-09 19:23N 45°39' E 013°45'0 0.0
2017-Sep-09 18:59N 45°39' E 013°45'0 0.0
2017-Sep-09 18:26N 45°39' E 013°45'0 0.0
2017-Sep-09 17:44N 45°39' E 013°45'0 0.0
2017-Sep-09 17:20N 45°39' E 013°45'0 0.0
2017-Sep-09 16:59N 45°39' E 013°45'0 0.0
2017-Sep-09 16:29N 45°39' E 013°45'0 0.0
2017-Sep-09 15:56N 45°39' E 013°45'0 0.0
2017-Sep-09 15:29N 45°39' E 013°45'0 0.0
2017-Sep-09 14:59N 45°39' E 013°45'0 0.0
2017-Sep-09 14:26N 45°39' E 013°45'0 0.0
2017-Sep-09 13:59N 45°39' E 013°45'0 0.0
2017-Sep-09 13:29N 45°39' E 013°45'0 0.0
2017-Sep-09 12:56N 45°39' E 013°45'0 0.0
2017-Sep-09 12:29N 45°39' E 013°45'0 0.0
2017-Sep-09 11:50N 45°39' E 013°45'0 0.0
2017-Sep-09 11:14N 45°39' E 013°45'0 0.0
2017-Sep-09 10:56N 45°39' E 013°45'0 0.0
2017-Sep-09 10:26N 45°39' E 013°45'0 0.0
2017-Sep-09 10:00N 45°39' E 013°45'0 0.0
2017-Sep-09 09:30N 45°39' E 013°45'0 0.0
2017-Sep-09 09:00N 45°39' E 013°45'4 7.4
2017-Sep-09 08:30N 45°39' E 013°40'1019.8
2017-Sep-09 08:00N 45°33' E 013°28'1020.9
2017-Sep-09 07:30N 45°26' E 013°17'1019.6
2017-Sep-09 07:00N 45°16' E 013°15'1121.5
2017-Sep-09 06:30N 45°06' E 013°19'1121.5
2017-Sep-09 06:00N 44°56' E 013°25'1121.3
2017-Sep-09 05:30N 44°47' E 013°33'1121.2
2017-Sep-09 05:00N 44°38' E 013°41'815.1
2017-Sep-09 04:30N 44°32' E 013°47'612.7
2017-Sep-09 04:00N 44°27' E 013°52'612.7
2017-Sep-09 03:30N 44°21' E 013°57'612.5
2017-Sep-09 03:00N 44°16' E 014°02'  

Dump ship's entire track history